Time;durP1;ratioP1;P1;durP2;ratioP2;P2;SDS_P1;SDS_P2;PMS_P1;PMS_P2;Temp;Humidity;BMP_temperature;BMP_pressure;BME280_temperature;BME280_humidity;BME280_pressure;Samples;Min_cycle;Max_cycle;Signal;HPM_P1;HPM_P2
2023/03/21 00:00:02;;;;;;;;;;;20.20;39.80;;;;;;1540310;77;770;-59
2023/03/21 00:02:04;;;;;;;;;;;20.10;39.80;;;;;;1533919;77;1160;-58
2023/03/21 00:04:06;;;;;;;;;;;20.20;39.80;;;;;;1542251;77;745;-59
2023/03/21 00:06:10;;;;;;;;;;;20.10;39.80;;;;;;1528691;77;755;-60
2023/03/21 00:08:11;;;;;;;;;;;20.20;39.70;;;;;;1530919;77;774;-58
2023/03/21 00:10:14;;;;;;;;;;;20.20;39.70;;;;;;1541646;77;1931;-58
2023/03/21 00:12:16;;;;;;;;;;;20.10;39.70;;;;;;1540129;77;1508;-59
2023/03/21 00:14:18;;;;;;;;;;;20.20;39.70;;;;;;1534163;77;713;-58
2023/03/21 00:16:20;;;;;;;;;;;20.20;39.70;;;;;;1536981;77;769;-59
2023/03/21 00:18:24;;;;;;;;;;;20.20;39.70;;;;;;1533963;77;659;-58
2023/03/21 00:20:26;;;;;;;;;;;20.20;39.70;;;;;;1543109;77;678;-58
2023/03/21 00:22:28;;;;;;;;;;;20.10;39.70;;;;;;1541969;77;1149;-59
2023/03/21 00:24:30;;;;;;;;;;;20.10;39.70;;;;;;1536439;77;727;-57
2023/03/21 00:26:32;;;;;;;;;;;20.20;39.70;;;;;;1548278;77;1571;-59
2023/03/21 00:28:34;;;;;;;;;;;20.20;39.70;;;;;;1538013;77;743;-59
2023/03/21 00:30:35;;;;;;;;;;;20.20;39.70;;;;;;1540857;77;1927;-59
2023/03/21 00:32:37;;;;;;;;;;;20.20;39.70;;;;;;1532445;77;1153;-60
2023/03/21 00:34:39;;;;;;;;;;;20.10;39.70;;;;;;1546093;77;797;-59
2023/03/21 00:36:41;;;;;;;;;;;20.20;39.70;;;;;;1537039;77;780;-58
2023/03/21 00:38:43;;;;;;;;;;;20.20;39.60;;;;;;1541718;77;787;-60
2023/03/21 00:40:45;;;;;;;;;;;20.20;39.60;;;;;;1533165;77;1414;-58
2023/03/21 00:42:47;;;;;;;;;;;20.20;39.70;;;;;;1536897;77;1167;-58
2023/03/21 00:44:49;;;;;;;;;;;20.20;39.60;;;;;;1538989;77;713;-58
2023/03/21 00:46:51;;;;;;;;;;;20.10;39.70;;;;;;1534951;77;717;-60
2023/03/21 00:48:53;;;;;;;;;;;20.20;39.60;;;;;;1535559;77;677;-59
2023/03/21 00:50:56;;;;;;;;;;;20.10;39.70;;;;;;1531563;77;1891;-59
2023/03/21 00:52:58;;;;;;;;;;;20.20;39.60;;;;;;1529890;77;1153;-58
2023/03/21 00:55:00;;;;;;;;;;;20.20;39.50;;;;;;1532222;77;716;-58
2023/03/21 00:57:02;;;;;;;;;;;20.10;39.60;;;;;;1529627;77;770;-59
2023/03/21 00:59:05;;;;;;;;;;;20.20;39.60;;;;;;1531523;77;637;-57
2023/03/21 01:01:08;;;;;;;;;;;20.20;39.60;;;;;;1540328;77;744;-58
2023/03/21 01:03:11;;;;;;;;;;;20.20;39.60;;;;;;1546304;77;1102;-59
2023/03/21 01:06:00;;;;;;;;;;;20.20;39.60;;;;;;1539729;77;724;-59
2023/03/21 01:07:16;;;;;;;;;;;20.10;39.70;;;;;;1538970;77;1552;-59
2023/03/21 01:09:18;;;;;;;;;;;20.20;39.60;;;;;;1534519;77;741;-58
2023/03/21 01:11:21;;;;;;;;;;;20.20;39.60;;;;;;1539850;77;1926;-58
2023/03/21 01:13:24;;;;;;;;;;;20.10;39.60;;;;;;1539166;77;1186;-59
2023/03/21 01:15:25;;;;;;;;;;;20.10;39.60;;;;;;1541418;77;753;-58
2023/03/21 01:17:27;;;;;;;;;;;20.20;39.60;;;;;;1547746;77;764;-59
2023/03/21 01:19:29;;;;;;;;;;;20.20;39.60;;;;;;1534257;77;725;-60
2023/03/21 01:21:32;;;;;;;;;;;20.20;39.60;;;;;;1538226;77;1576;-59
2023/03/21 01:23:33;;;;;;;;;;;20.20;39.60;;;;;;1543647;77;1118;-58
2023/03/21 01:25:35;;;;;;;;;;;20.10;39.60;;;;;;1537553;77;779;-59
2023/03/21 01:27:37;;;;;;;;;;;20.20;39.60;;;;;;1539794;77;691;-59
2023/03/21 01:29:39;;;;;;;;;;;20.20;39.50;;;;;;1534624;77;633;-59
2023/03/21 01:31:41;;;;;;;;;;;20.20;39.40;;;;;;1538122;77;1931;-58
2023/03/21 01:33:43;;;;;;;;;;;20.20;39.50;;;;;;1538361;77;661;-58
2023/03/21 01:35:45;;;;;;;;;;;20.20;39.50;;;;;;1532230;77;1471;-58
2023/03/21 01:37:47;;;;;;;;;;;20.20;39.50;;;;;;1532934;77;669;-58
2023/03/21 01:39:49;;;;;;;;;;;20.20;39.50;;;;;;1537314;77;756;-59
2023/03/21 01:41:51;;;;;;;;;;;20.10;39.50;;;;;;1546803;77;1122;-61
2023/03/21 01:43:53;;;;;;;;;;;20.20;39.40;;;;;;1534235;77;885;-58
2023/03/21 01:46:11;;;;;;;;;;;20.20;39.40;;;;;;1544015;77;721;-60
2023/03/21 01:48:13;;;;;;;;;;;20.10;39.40;;;;;;1545244;77;804;-59
2023/03/21 01:50:15;;;;;;;;;;;20.20;39.50;;;;;;1531380;77;1367;-59
2023/03/21 01:52:19;;;;;;;;;;;20.10;39.40;;;;;;1530746;77;1952;-58
2023/03/21 01:54:25;;;;;;;;;;;20.10;39.50;;;;;;1522359;77;679;-59
2023/03/21 01:56:29;;;;;;;;;;;20.20;39.50;;;;;;1543509;77;696;-59
2023/03/21 01:58:31;;;;;;;;;;;20.20;39.50;;;;;;1547228;77;612;-61
2023/03/21 02:00:33;;;;;;;;;;;20.20;39.50;;;;;;1542286;77;672;-59
2023/03/21 02:02:36;;;;;;;;;;;20.20;39.50;;;;;;1543101;77;1212;-59
2023/03/21 02:04:38;;;;;;;;;;;20.10;39.50;;;;;;1532080;77;1565;-58
2023/03/21 02:06:42;;;;;;;;;;;20.10;39.50;;;;;;1528218;77;808;-57
2023/03/21 02:08:45;;;;;;;;;;;20.10;39.50;;;;;;1545330;77;724;-59
2023/03/21 02:10:47;;;;;;;;;;;20.10;39.40;;;;;;1545860;77;736;-60
2023/03/21 02:12:50;;;;;;;;;;;20.10;39.50;;;;;;1548435;77;1906;-58
2023/03/21 02:14:51;;;;;;;;;;;20.10;39.50;;;;;;1534841;77;741;-58
2023/03/21 02:16:55;;;;;;;;;;;20.10;39.40;;;;;;1546293;77;707;-59
2023/03/21 02:19:18;;;;;;;;;;;20.10;39.50;;;;;;1535388;77;1972;-58
2023/03/21 02:21:29;;;;;;;;;;;20.10;39.50;;;;;;1536030;77;1641;-60
2023/03/21 02:23:49;;;;;;;;;;;20.10;39.40;;;;;;1547306;77;1919;-58
2023/03/21 02:25:56;;;;;;;;;;;20.10;39.40;;;;;;1532779;77;663;-58
2023/03/21 02:28:00;;;;;;;;;;;20.10;39.50;;;;;;1543857;77;1817;-59
2023/03/21 02:30:19;;;;;;;;;;;20.10;39.50;;;;;;1532031;77;918;-59
2023/03/21 02:32:23;;;;;;;;;;;20.10;39.50;;;;;;1537848;75;1977;-60
2023/03/21 02:34:41;;;;;;;;;;;20.00;39.40;;;;;;1544196;77;920;-60
2023/03/21 02:36:51;;;;;;;;;;;20.10;39.60;;;;;;1538654;77;930;-60
2023/03/21 02:38:55;;;;;;;;;;;20.10;39.60;;;;;;1545338;77;790;-60
2023/03/21 02:40:58;;;;;;;;;;;20.10;39.60;;;;;;1530732;77;828;-59
2023/03/21 02:43:02;;;;;;;;;;;20.00;39.40;;;;;;1534563;77;1155;-62
2023/03/21 02:45:14;;;;;;;;;;;20.10;39.60;;;;;;1545934;77;670;-60
2023/03/21 02:47:24;;;;;;;;;;;20.10;39.60;;;;;;1543306;77;2616;-60
2023/03/21 02:49:27;;;;;;;;;;;20.10;39.50;;;;;;1530489;77;696;-59
2023/03/21 02:51:29;;;;;;;;;;;20.00;39.40;;;;;;1547829;77;1886;-60
2023/03/21 02:53:33;;;;;;;;;;;20.10;39.60;;;;;;1546198;77;1165;-60
2023/03/21 02:55:35;;;;;;;;;;;20.10;39.60;;;;;;1543874;77;804;-61
2023/03/21 02:57:36;;;;;;;;;;;20.10;39.50;;;;;;1542241;77;789;-60
2023/03/21 02:59:38;;;;;;;;;;;20.10;39.50;;;;;;1543797;77;1583;-61
2023/03/21 03:01:40;;;;;;;;;;;20.10;39.50;;;;;;1546308;77;661;-60
2023/03/21 03:03:42;;;;;;;;;;;20.10;39.50;;;;;;1547709;77;1168;-60
2023/03/21 03:05:52;;;;;;;;;;;20.10;39.40;;;;;;1545327;77;718;-60
2023/03/21 03:07:55;;;;;;;;;;;20.10;39.40;;;;;;1537728;77;699;-60
2023/03/21 03:09:59;;;;;;;;;;;20.10;39.40;;;;;;1547266;77;777;-59
2023/03/21 03:12:05;;;;;;;;;;;20.00;39.40;;;;;;1528335;77;1923;-60
2023/03/21 03:14:25;;;;;;;;;;;20.10;39.50;;;;;;1527131;77;2011;-59
2023/03/21 03:16:29;;;;;;;;;;;20.10;39.50;;;;;;1545613;77;754;-61
2023/03/21 03:18:47;;;;;;;;;;;20.10;39.50;;;;;;1528060;77;1695;-60
2023/03/21 03:20:54;;;;;;;;;;;20.10;39.50;;;;;;1542448;77;750;-61
2023/03/21 03:22:57;;;;;;;;;;;20.10;39.50;;;;;;1530046;77;2080;-60
2023/03/21 03:25:00;;;;;;;;;;;20.10;39.50;;;;;;1545237;77;1000;-60
2023/03/21 03:27:04;;;;;;;;;;;20.10;39.50;;;;;;1536671;77;750;-60
2023/03/21 03:29:06;;;;;;;;;;;20.10;39.50;;;;;;1541043;75;1583;-60
2023/03/21 03:31:10;;;;;;;;;;;20.10;39.50;;;;;;1544445;77;760;-60
2023/03/21 03:33:15;;;;;;;;;;;20.10;39.40;;;;;;1513957;77;1902;-61
2023/03/21 03:35:16;;;;;;;;;;;20.10;39.40;;;;;;1537542;77;1710;-59
2023/03/21 03:37:20;;;;;;;;;;;20.10;39.50;;;;;;1546005;77;768;-61
2023/03/21 03:39:27;;;;;;;;;;;20.10;39.40;;;;;;1543028;77;636;-60
2023/03/21 03:41:29;;;;;;;;;;;20.10;39.40;;;;;;1544788;77;787;-60
2023/03/21 03:43:32;;;;;;;;;;;20.10;39.40;;;;;;1535712;77;1686;-60
2023/03/21 03:45:35;;;;;;;;;;;20.10;39.40;;;;;;1543482;77;1710;-59
2023/03/21 03:47:41;;;;;;;;;;;20.10;39.30;;;;;;1533107;77;727;-60
2023/03/21 03:49:45;;;;;;;;;;;20.10;39.40;;;;;;1540491;77;687;-59
2023/03/21 03:51:51;;;;;;;;;;;20.10;39.40;;;;;;1541327;77;1939;-60
2023/03/21 03:53:54;;;;;;;;;;;20.10;39.40;;;;;;1538666;77;751;-59
2023/03/21 03:55:55;;;;;;;;;;;20.10;39.40;;;;;;1539758;77;1512;-60
2023/03/21 03:57:57;;;;;;;;;;;20.10;39.40;;;;;;1533475;77;729;-59
2023/03/21 03:59:59;;;;;;;;;;;20.10;39.40;;;;;;1541700;77;660;-62
2023/03/21 04:02:02;;;;;;;;;;;20.10;39.40;;;;;;1547153;77;1177;-60
2023/03/21 04:04:04;;;;;;;;;;;20.10;39.40;;;;;;1539968;77;774;-59
2023/03/21 04:06:06;;;;;;;;;;;20.10;39.40;;;;;;1536020;77;763;-60
2023/03/21 04:08:08;;;;;;;;;;;20.10;39.30;;;;;;1536892;77;795;-61
2023/03/21 04:10:10;;;;;;;;;;;20.10;39.30;;;;;;1543783;77;1602;-60
2023/03/21 04:12:12;;;;;;;;;;;20.10;39.40;;;;;;1548002;77;1921;-60
2023/03/21 04:14:14;;;;;;;;;;;20.20;39.40;;;;;;1537444;77;781;-60
2023/03/21 04:16:16;;;;;;;;;;;20.10;39.30;;;;;;1546427;77;745;-60
2023/03/21 04:18:18;;;;;;;;;;;20.10;39.30;;;;;;1547929;77;727;-60
2023/03/21 04:20:20;;;;;;;;;;;20.10;39.40;;;;;;1544212;77;702;-61
2023/03/21 04:22:21;;;;;;;;;;;20.10;39.40;;;;;;1542414;77;1134;-60
2023/03/21 04:24:23;;;;;;;;;;;20.10;39.30;;;;;;1536735;77;1592;-60
2023/03/21 04:26:31;;;;;;;;;;;20.10;39.30;;;;;;1538481;77;589;-59
2023/03/21 04:28:29;;;;;;;;;;;20.00;39.30;;;;;;1544640;77;1593;-63
2023/03/21 04:30:33;;;;;;;;;;;20.10;39.40;;;;;;1535865;77;736;-62
2023/03/21 04:32:38;;;;;;;;;;;20.10;39.40;;;;;;1533221;77;1926;-61
2023/03/21 04:34:39;;;;;;;;;;;20.10;39.40;;;;;;1530715;77;1573;-60
2023/03/21 04:36:48;;;;;;;;;;;20.00;39.30;;;;;;1534357;77;734;-61
2023/03/21 04:38:47;;;;;;;;;;;20.00;39.30;;;;;;1532606;76;1614;-61
2023/03/21 04:40:49;;;;;;;;;;;20.10;39.40;;;;;;1536380;77;717;-60
2023/03/21 04:42:51;;;;;;;;;;;20.00;39.20;;;;;;1532076;77;1154;-60
2023/03/21 04:44:52;;;;;;;;;;;20.00;39.30;;;;;;1543359;77;811;-60
2023/03/21 04:46:54;;;;;;;;;;;20.10;39.30;;;;;;1535006;77;652;-61
2023/03/21 04:48:56;;;;;;;;;;;20.10;39.40;;;;;;1539698;77;792;-61
2023/03/21 04:50:58;;;;;;;;;;;20.10;39.30;;;;;;1546144;77;644;-60
2023/03/21 04:53:00;;;;;;;;;;;20.10;39.30;;;;;;1544642;77;1939;-60
2023/03/21 04:55:02;;;;;;;;;;;20.10;39.30;;;;;;1532783;77;754;-60
2023/03/21 04:57:04;;;;;;;;;;;20.10;39.20;;;;;;1534749;77;758;-61
2023/03/21 04:59:07;;;;;;;;;;;20.00;39.10;;;;;;1537678;77;681;-60
2023/03/21 05:01:09;;;;;;;;;;;20.10;39.20;;;;;;1529046;77;694;-60
2023/03/21 05:03:18;;;;;;;;;;;20.10;39.20;;;;;;1536486;77;1096;-60
2023/03/21 05:05:15;;;;;;;;;;;20.10;39.20;;;;;;1531348;77;1625;-60
2023/03/21 05:07:17;;;;;;;;;;;20.10;39.20;;;;;;1535570;77;1267;-59
2023/03/21 05:09:19;;;;;;;;;;;20.10;39.30;;;;;;1529686;77;657;-60
2023/03/21 05:11:20;;;;;;;;;;;20.10;39.20;;;;;;1534499;77;803;-60
2023/03/21 05:13:22;;;;;;;;;;;20.10;39.20;;;;;;1533641;77;1948;-62
2023/03/21 05:15:24;;;;;;;;;;;20.10;39.20;;;;;;1540965;77;649;-62
2023/03/21 05:17:27;;;;;;;;;;;20.10;39.20;;;;;;1547085;77;801;-60
2023/03/21 05:19:39;;;;;;;;;;;20.10;39.20;;;;;;1544747;77;693;-62
2023/03/21 05:21:40;;;;;;;;;;;20.00;39.00;;;;;;1525766;77;1591;-61
2023/03/21 05:23:39;;;;;;;;;;;20.10;39.20;;;;;;1533256;77;1668;-61
2023/03/21 05:25:41;;;;;;;;;;;20.10;39.30;;;;;;1544222;77;710;-60
2023/03/21 05:27:52;;;;;;;;;;;20.10;39.30;;;;;;1548484;77;664;-60
2023/03/21 05:29:47;;;;;;;;;;;20.10;39.30;;;;;;1536558;77;1532;-60
2023/03/21 05:31:49;;;;;;;;;;;20.10;39.30;;;;;;1540925;77;1138;-60
2023/03/21 05:33:51;;;;;;;;;;;20.10;39.20;;;;;;1511623;78;1937;-60
2023/03/21 05:35:52;;;;;;;;;;;20.10;39.20;;;;;;1541276;77;1434;-61
2023/03/21 05:37:54;;;;;;;;;;;20.10;39.20;;;;;;1535277;77;742;-61
2023/03/21 05:39:56;;;;;;;;;;;20.10;39.20;;;;;;1528889;77;736;-60
2023/03/21 05:41:58;;;;;;;;;;;20.10;39.20;;;;;;1546588;77;1150;-61
2023/03/21 05:44:00;;;;;;;;;;;20.10;39.20;;;;;;1536115;77;723;-60
2023/03/21 05:46:02;;;;;;;;;;;20.00;39.00;;;;;;1546637;77;571;-60
2023/03/21 05:48:04;;;;;;;;;;;20.10;39.20;;;;;;1545761;77;740;-59
2023/03/21 05:50:06;;;;;;;;;;;20.10;39.20;;;;;;1535100;77;1381;-61
2023/03/21 05:52:08;;;;;;;;;;;20.10;39.20;;;;;;1539915;77;1153;-60
2023/03/21 05:54:15;;;;;;;;;;;20.10;39.20;;;;;;1539257;77;1925;-61
2023/03/21 05:56:13;;;;;;;;;;;20.00;39.00;;;;;;1542371;77;1819;-60
2023/03/21 05:58:15;;;;;;;;;;;20.10;39.20;;;;;;1534659;77;715;-60
2023/03/21 06:00:20;;;;;;;;;;;20.10;39.20;;;;;;1542546;77;773;-60
2023/03/21 06:02:21;;;;;;;;;;;20.10;39.20;;;;;;1540095;77;1797;-60
2023/03/21 06:04:23;;;;;;;;;;;20.10;39.20;;;;;;1534167;77;702;-60
2023/03/21 06:06:25;;;;;;;;;;;20.10;39.10;;;;;;1540507;77;754;-62
2023/03/21 06:08:27;;;;;;;;;;;20.10;39.20;;;;;;1537136;77;768;-60
2023/03/21 06:10:29;;;;;;;;;;;20.10;39.20;;;;;;1547910;77;742;-61
2023/03/21 06:12:30;;;;;;;;;;;20.10;39.20;;;;;;1536149;77;1920;-62
2023/03/21 06:14:32;;;;;;;;;;;20.00;39.00;;;;;;1530845;77;754;-59
2023/03/21 06:16:34;;;;;;;;;;;20.10;39.20;;;;;;1543160;77;1373;-60
2023/03/21 06:18:36;;;;;;;;;;;20.10;39.20;;;;;;1540143;77;792;-59
2023/03/21 06:20:38;;;;;;;;;;;20.10;39.20;;;;;;1535492;77;653;-62
2023/03/21 06:22:40;;;;;;;;;;;20.10;39.20;;;;;;1532336;77;1100;-61
2023/03/21 06:24:42;;;;;;;;;;;20.00;39.10;;;;;;1537073;77;763;-60
2023/03/21 06:26:44;;;;;;;;;;;20.10;39.10;;;;;;1547922;77;702;-61
2023/03/21 06:28:46;;;;;;;;;;;20.10;39.20;;;;;;1541562;77;736;-60
2023/03/21 06:30:48;;;;;;;;;;;20.10;39.10;;;;;;1540334;77;1440;-60
2023/03/21 06:32:50;;;;;;;;;;;20.10;39.20;;;;;;1529278;77;1952;-61
2023/03/21 06:34:52;;;;;;;;;;;20.20;39.10;;;;;;1538583;77;794;-60
2023/03/21 06:36:54;;;;;;;;;;;20.10;39.10;;;;;;1531758;77;779;-59
2023/03/21 06:38:55;;;;;;;;;;;20.10;39.10;;;;;;1544866;77;788;-60
2023/03/21 06:40:57;;;;;;;;;;;20.10;39.10;;;;;;1536013;77;725;-61
2023/03/21 06:42:59;;;;;;;;;;;20.10;39.20;;;;;;1532729;77;1135;-61
2023/03/21 06:45:02;;;;;;;;;;;20.10;39.10;;;;;;1540915;77;1547;-60
2023/03/21 06:47:04;;;;;;;;;;;20.10;39.20;;;;;;1539936;77;701;-60
2023/03/21 06:49:05;;;;;;;;;;;20.10;39.10;;;;;;1535774;77;694;-59
2023/03/21 06:51:07;;;;;;;;;;;20.10;39.10;;;;;;1543527;77;731;-61
2023/03/21 06:53:09;;;;;;;;;;;20.10;39.10;;;;;;1539443;77;1936;-60
2023/03/21 06:55:11;;;;;;;;;;;20.10;39.10;;;;;;1532624;77;794;-60
2023/03/21 06:57:13;;;;;;;;;;;20.20;39.10;;;;;;1533882;77;744;-60
2023/03/21 06:59:15;;;;;;;;;;;20.10;39.10;;;;;;1535932;77;1442;-59
2023/03/21 07:01:17;;;;;;;;;;;20.10;39.10;;;;;;1536777;77;760;-60
2023/03/21 07:03:18;;;;;;;;;;;20.10;39.10;;;;;;1533473;77;1113;-61
2023/03/21 07:05:21;;;;;;;;;;;20.10;39.10;;;;;;1538899;77;787;-61
2023/03/21 07:07:28;;;;;;;;;;;20.20;39.10;;;;;;1536565;77;766;-59
2023/03/21 07:09:30;;;;;;;;;;;20.20;39.20;;;;;;1543175;77;737;-60
2023/03/21 07:11:32;;;;;;;;;;;20.10;39.10;;;;;;1531622;77;736;-61
2023/03/21 07:13:34;;;;;;;;;;;20.10;39.10;;;;;;1526000;77;1950;-60
2023/03/21 07:15:37;;;;;;;;;;;20.10;39.10;;;;;;1543404;77;785;-60
2023/03/21 07:17:39;;;;;;;;;;;20.10;39.10;;;;;;1534475;77;610;-60
2023/03/21 07:19:41;;;;;;;;;;;20.20;39.10;;;;;;1540963;77;673;-60
2023/03/21 07:21:42;;;;;;;;;;;20.10;39.10;;;;;;1530423;77;602;-61
2023/03/21 07:23:45;;;;;;;;;;;20.20;39.10;;;;;;1540065;77;705;-60
2023/03/21 07:25:48;;;;;;;;;;;20.10;39.00;;;;;;1546806;77;664;-60
2023/03/21 07:27:50;;;;;;;;;;;20.10;39.10;;;;;;1543717;77;1457;-60
2023/03/21 07:29:52;;;;;;;;;;;20.20;39.10;;;;;;1528013;77;705;-60
2023/03/21 07:31:54;;;;;;;;;;;20.20;39.10;;;;;;1542498;77;1096;-59
2023/03/21 07:33:55;;;;;;;;;;;20.20;39.10;;;;;;1536642;77;1940;-60
2023/03/21 07:35:57;;;;;;;;;;;20.20;39.10;;;;;;1525909;77;776;-61
2023/03/21 07:37:59;;;;;;;;;;;20.20;39.10;;;;;;1548129;77;760;-59
2023/03/21 07:40:09;;;;;;;;;;;20.10;39.10;;;;;;1524625;77;872;-61
2023/03/21 07:42:05;;;;;;;;;;;20.20;39.00;;;;;;1529414;77;1583;-60
2023/03/21 07:44:07;;;;;;;;;;;20.20;39.10;;;;;;1532859;77;812;-60
2023/03/21 07:46:09;;;;;;;;;;;20.10;39.10;;;;;;1546178;77;704;-62
2023/03/21 07:48:11;;;;;;;;;;;20.30;39.20;;;;;;1537356;77;739;-61
2023/03/21 07:50:14;;;;;;;;;;;20.20;39.10;;;;;;1540458;77;720;-60
2023/03/21 07:52:15;;;;;;;;;;;20.20;39.10;;;;;;1530949;77;1106;-60
2023/03/21 07:54:20;;;;;;;;;;;20.20;39.00;;;;;;1537228;77;2244;-59
2023/03/21 07:56:21;;;;;;;;;;;20.20;39.10;;;;;;1545354;77;1561;-60
2023/03/21 07:58:23;;;;;;;;;;;20.20;39.00;;;;;;1541075;77;691;-60
2023/03/21 08:00:25;;;;;;;;;;;20.20;39.00;;;;;;1540833;77;689;-61
2023/03/21 08:02:27;;;;;;;;;;;20.20;39.00;;;;;;1547431;77;1141;-60
2023/03/21 08:04:29;;;;;;;;;;;20.20;39.10;;;;;;1523441;77;777;-61
2023/03/21 08:06:31;;;;;;;;;;;20.20;39.00;;;;;;1542849;77;697;-60
2023/03/21 08:08:33;;;;;;;;;;;20.20;39.10;;;;;;1545840;77;775;-59
2023/03/21 08:10:35;;;;;;;;;;;20.20;39.10;;;;;;1540503;77;1557;-60
2023/03/21 08:12:37;;;;;;;;;;;20.20;39.00;;;;;;1540482;77;1150;-61
2023/03/21 08:14:38;;;;;;;;;;;20.20;39.00;;;;;;1534296;77;1932;-62
2023/03/21 08:16:40;;;;;;;;;;;20.20;39.00;;;;;;1538178;77;698;-60
2023/03/21 08:18:42;;;;;;;;;;;20.20;39.00;;;;;;1531727;77;755;-60
2023/03/21 08:20:44;;;;;;;;;;;20.20;39.10;;;;;;1544822;77;746;-60
2023/03/21 08:22:46;;;;;;;;;;;20.30;39.10;;;;;;1548726;77;1145;-60
2023/03/21 08:24:48;;;;;;;;;;;20.20;39.00;;;;;;1547646;77;1485;-59
2023/03/21 08:26:50;;;;;;;;;;;20.20;39.00;;;;;;1545755;77;639;-60
2023/03/21 08:28:52;;;;;;;;;;;20.30;39.20;;;;;;1543455;77;756;-60
2023/03/21 08:30:54;;;;;;;;;;;20.20;39.10;;;;;;1541809;77;747;-61
2023/03/21 08:32:57;;;;;;;;;;;20.20;39.00;;;;;;1536657;77;1152;-60
2023/03/21 08:35:00;;;;;;;;;;;20.20;39.10;;;;;;1532085;77;1916;-60
2023/03/21 08:37:03;;;;;;;;;;;20.30;39.20;;;;;;1535430;77;1826;-60
2023/03/21 08:39:05;;;;;;;;;;;20.20;39.10;;;;;;1535122;77;685;-59
2023/03/21 08:41:07;;;;;;;;;;;20.30;39.20;;;;;;1542461;77;715;-59
2023/03/21 08:43:08;;;;;;;;;;;20.20;39.00;;;;;;1546928;77;1090;-61
2023/03/21 08:45:10;;;;;;;;;;;20.30;39.20;;;;;;1537210;77;685;-62
2023/03/21 08:47:12;;;;;;;;;;;20.20;39.00;;;;;;1539005;77;780;-60
2023/03/21 08:49:14;;;;;;;;;;;20.20;39.00;;;;;;1545004;77;646;-59
2023/03/21 08:51:16;;;;;;;;;;;20.30;39.20;;;;;;1547047;77;1486;-60
2023/03/21 08:53:18;;;;;;;;;;;20.30;39.20;;;;;;1532361;77;1896;-60
2023/03/21 08:55:20;;;;;;;;;;;20.30;39.20;;;;;;1540484;77;774;-59
2023/03/21 08:57:22;;;;;;;;;;;20.30;39.10;;;;;;1544394;77;730;-60
2023/03/21 08:59:24;;;;;;;;;;;20.30;39.10;;;;;;1544153;77;754;-59
2023/03/21 09:01:25;;;;;;;;;;;20.30;39.10;;;;;;1548795;77;792;-59
2023/03/21 09:03:29;;;;;;;;;;;20.30;39.20;;;;;;1537243;77;1126;-60
2023/03/21 09:05:31;;;;;;;;;;;20.20;39.10;;;;;;1526579;77;1549;-62
2023/03/21 09:07:35;;;;;;;;;;;20.30;39.20;;;;;;1531820;77;722;-60
2023/03/21 09:09:37;;;;;;;;;;;20.30;39.20;;;;;;1544607;77;670;-60
2023/03/21 09:11:39;;;;;;;;;;;20.30;39.20;;;;;;1534028;77;689;-63
2023/03/21 09:13:40;;;;;;;;;;;20.30;39.20;;;;;;1536369;77;1932;-60
2023/03/21 09:15:42;;;;;;;;;;;20.30;39.20;;;;;;1542350;77;772;-60
2023/03/21 09:17:49;;;;;;;;;;;20.30;39.20;;;;;;1542603;77;661;-60
2023/03/21 09:19:49;;;;;;;;;;;20.30;39.20;;;;;;1532422;77;1624;-60
2023/03/21 09:21:52;;;;;;;;;;;20.30;39.20;;;;;;1544810;77;1202;-61
2023/03/21 09:23:57;;;;;;;;;;;20.30;39.20;;;;;;1529608;77;704;-60
2023/03/21 09:25:58;;;;;;;;;;;20.30;39.20;;;;;;1543128;77;1651;-61
2023/03/21 09:28:00;;;;;;;;;;;20.40;39.20;;;;;;1531163;77;776;-60
2023/03/21 09:30:04;;;;;;;;;;;20.30;39.20;;;;;;1543523;77;720;-61
2023/03/21 09:32:07;;;;;;;;;;;20.30;39.20;;;;;;1546547;77;1157;-60
2023/03/21 09:34:09;;;;;;;;;;;20.30;39.20;;;;;;1536257;77;2087;-60
2023/03/21 09:36:13;;;;;;;;;;;20.30;39.10;;;;;;1531964;77;701;-60
2023/03/21 09:38:15;;;;;;;;;;;20.30;39.20;;;;;;1525587;77;853;-59
2023/03/21 09:40:18;;;;;;;;;;;20.40;39.20;;;;;;1546631;77;656;-60
2023/03/21 09:42:25;;;;;;;;;;;20.40;39.10;;;;;;1547214;77;1720;-59
2023/03/21 09:44:29;;;;;;;;;;;20.40;39.10;;;;;;1542083;77;676;-60
2023/03/21 09:46:38;;;;;;;;;;;20.30;39.10;;;;;;1547543;77;801;-61
2023/03/21 09:48:56;;;;;;;;;;;20.40;39.10;;;;;;1539022;77;2106;-58
2023/03/21 09:50:59;;;;;;;;;;;20.40;39.10;;;;;;1546121;77;703;-59
2023/03/21 09:53:06;;;;;;;;;;;20.40;39.10;;;;;;1540385;77;1146;-59
2023/03/21 09:55:17;;;;;;;;;;;20.30;39.10;;;;;;1530930;77;1917;-59
2023/03/21 09:57:18;;;;;;;;;;;20.40;39.10;;;;;;1546445;77;1789;-60
2023/03/21 09:59:22;;;;;;;;;;;20.40;39.00;;;;;;1536901;77;2065;-59
2023/03/21 10:01:31;;;;;;;;;;;20.40;39.10;;;;;;1531148;77;908;-59
2023/03/21 10:03:36;;;;;;;;;;;20.40;39.00;;;;;;1538848;77;1699;-59
2023/03/21 10:05:38;;;;;;;;;;;20.80;39.20;;;;;;1536229;77;1568;-59
2023/03/21 10:07:41;;;;;;;;;;;20.40;39.00;;;;;;1540554;77;928;-59
2023/03/21 10:09:43;;;;;;;;;;;20.40;38.90;;;;;;1529352;77;801;-60
2023/03/21 10:11:47;;;;;;;;;;;20.40;39.00;;;;;;1535291;77;1108;-59
2023/03/21 10:13:50;;;;;;;;;;;20.40;39.00;;;;;;1533532;77;1910;-59
2023/03/21 10:16:00;;;;;;;;;;;20.40;38.90;;;;;;1543118;77;1330;-61
2023/03/21 10:18:02;;;;;;;;;;;20.50;39.00;;;;;;1532307;77;713;-59
2023/03/21 10:20:09;;;;;;;;;;;20.40;38.90;;;;;;1532976;77;811;-59
2023/03/21 10:22:09;;;;;;;;;;;20.50;39.00;;;;;;1534032;77;1759;-59
2023/03/21 10:24:12;;;;;;;;;;;20.40;38.80;;;;;;1537971;77;594;-59
2023/03/21 10:26:14;;;;;;;;;;;20.50;38.90;;;;;;1532687;77;728;-59
2023/03/21 10:28:18;;;;;;;;;;;20.50;38.90;;;;;;1547788;77;775;-60
2023/03/21 10:30:25;;;;;;;;;;;20.50;38.90;;;;;;1543382;77;1650;-59
2023/03/21 10:32:27;;;;;;;;;;;20.50;38.90;;;;;;1538301;77;1137;-59
2023/03/21 10:34:33;;;;;;;;;;;20.50;38.80;;;;;;1538206;77;1928;-58
2023/03/21 10:36:35;;;;;;;;;;;20.50;38.80;;;;;;1535760;77;1796;-60
2023/03/21 10:38:38;;;;;;;;;;;20.50;38.80;;;;;;1543898;77;725;-59
2023/03/21 10:40:40;;;;;;;;;;;20.50;38.80;;;;;;1544080;77;673;-59
2023/03/21 10:42:42;;;;;;;;;;;20.50;38.80;;;;;;1540530;77;1143;-59
2023/03/21 10:44:46;;;;;;;;;;;20.50;38.80;;;;;;1542907;77;1584;-59
2023/03/21 10:46:54;;;;;;;;;;;20.50;38.80;;;;;;1532677;77;738;-59
2023/03/21 10:48:56;;;;;;;;;;;20.50;38.60;;;;;;1546959;77;703;-59
2023/03/21 10:50:58;;;;;;;;;;;20.50;38.70;;;;;;1546782;77;672;-59
2023/03/21 10:53:00;;;;;;;;;;;20.60;38.60;;;;;;1543935;77;1153;-59
2023/03/21 10:55:07;;;;;;;;;;;20.50;38.60;;;;;;1541765;77;1929;-60
2023/03/21 10:57:10;;;;;;;;;;;20.50;38.60;;;;;;1535995;77;676;-59
2023/03/21 10:59:15;;;;;;;;;;;20.50;38.60;;;;;;1541111;77;1340;-60
2023/03/21 11:01:20;;;;;;;;;;;20.50;38.60;;;;;;1528920;77;927;-59
2023/03/21 11:03:24;;;;;;;;;;;20.50;38.60;;;;;;1533962;77;1921;-60
2023/03/21 11:05:33;;;;;;;;;;;20.50;38.60;;;;;;1547718;77;1688;-60
2023/03/21 11:07:36;;;;;;;;;;;20.50;38.60;;;;;;1536748;77;913;-59
2023/03/21 11:09:48;;;;;;;;;;;20.60;38.50;;;;;;1537470;77;771;-59
2023/03/21 11:12:04;;;;;;;;;;;20.60;38.60;;;;;;1541029;77;1504;-59
2023/03/21 11:14:08;;;;;;;;;;;20.50;38.60;;;;;;1532139;77;1904;-59
2023/03/21 11:16:10;;;;;;;;;;;20.50;38.60;;;;;;1543332;77;674;-59
2023/03/21 11:18:13;;;;;;;;;;;20.50;38.60;;;;;;1529787;77;706;-60
2023/03/21 11:20:17;;;;;;;;;;;20.50;38.40;;;;;;1531774;77;786;-59
2023/03/21 11:22:23;;;;;;;;;;;20.50;38.50;;;;;;1535916;77;1181;-59
2023/03/21 11:24:27;;;;;;;;;;;20.50;38.50;;;;;;1541328;77;685;-59
2023/03/21 11:26:31;;;;;;;;;;;20.60;38.40;;;;;;1539219;77;1574;-58
2023/03/21 11:28:33;;;;;;;;;;;20.50;38.50;;;;;;1543852;77;635;-58
2023/03/21 11:30:35;;;;;;;;;;;20.50;38.40;;;;;;1534501;77;773;-59
2023/03/21 11:32:37;;;;;;;;;;;20.50;38.40;;;;;;1536447;77;1149;-59
2023/03/21 11:34:49;;;;;;;;;;;20.50;38.40;;;;;;1547174;77;1892;-59
2023/03/21 11:36:51;;;;;;;;;;;20.60;38.40;;;;;;1537888;77;759;-59
2023/03/21 11:38:55;;;;;;;;;;;20.60;38.40;;;;;;1528412;77;792;-59
2023/03/21 11:40:58;;;;;;;;;;;20.60;38.40;;;;;;1541006;77;1497;-59
2023/03/21 11:43:01;;;;;;;;;;;20.50;38.30;;;;;;1536979;77;1133;-60
2023/03/21 11:45:05;;;;;;;;;;;20.60;38.40;;;;;;1536711;77;791;-59
2023/03/21 11:47:07;;;;;;;;;;;20.60;38.40;;;;;;1547575;75;1229;-59
2023/03/21 11:49:10;;;;;;;;;;;20.50;38.40;;;;;;1519692;77;746;-59
2023/03/21 11:51:14;;;;;;;;;;;20.50;38.40;;;;;;1529091;77;703;-60
2023/03/21 11:53:37;;;;;;;;;;;20.60;38.40;;;;;;1533296;77;1537;-59
2023/03/21 11:55:45;;;;;;;;;;;20.50;38.30;;;;;;1536935;77;1921;-60
2023/03/21 11:58:05;;;;;;;;;;;20.50;38.40;;;;;;1538796;77;699;-59
2023/03/21 12:00:25;;;;;;;;;;;20.60;38.30;;;;;;1537135;77;676;-58
2023/03/21 12:02:28;;;;;;;;;;;20.50;38.40;;;;;;1541517;77;1151;-59
2023/03/21 12:04:40;;;;;;;;;;;20.50;38.30;;;;;;1527972;77;1909;-59
2023/03/21 12:06:43;;;;;;;;;;;20.60;38.40;;;;;;1547823;77;807;-58
2023/03/21 12:08:53;;;;;;;;;;;20.50;38.40;;;;;;1546419;77;1788;-59
2023/03/21 12:10:59;;;;;;;;;;;20.50;38.30;;;;;;1536039;77;751;-59
2023/03/21 12:13:02;;;;;;;;;;;20.50;38.30;;;;;;1531268;77;1838;-60
2023/03/21 12:15:12;;;;;;;;;;;20.60;38.40;;;;;;1543973;77;1967;-60